createdAt,value
2019-01-05T00:00:45.887Z,90.09
2019-01-05T00:01:50.109Z,90.06
2019-01-05T00:02:54.394Z,90.04
2019-01-05T00:03:58.637Z,90.21
2019-01-05T00:05:02.844Z,90.17
2019-01-05T00:06:06.991Z,90.13
2019-01-05T00:07:11.264Z,90.20
2019-01-05T00:08:15.511Z,90.19
2019-01-05T00:09:19.552Z,90.13
2019-01-05T00:10:23.845Z,90.20
2019-01-05T00:11:28.099Z,90.23
2019-01-05T00:12:32.358Z,90.09
2019-01-05T00:13:36.549Z,90.00
2019-01-05T00:14:40.817Z,89.89
2019-01-05T00:15:45.061Z,89.82
2019-01-05T00:16:49.259Z,89.83
2019-01-05T00:17:53.488Z,89.90
2019-01-05T00:18:57.714Z,90.01
2019-01-05T00:20:01.938Z,90.09
2019-01-05T00:21:06.166Z,89.97
2019-01-05T00:22:10.396Z,90.10
2019-01-05T00:23:14.465Z,90.09
2019-01-05T00:24:18.763Z,90.06
2019-01-05T00:25:23.048Z,89.96
2019-01-05T00:26:27.252Z,90.00
2019-01-05T00:27:31.462Z,89.99
2019-01-05T00:28:35.610Z,90.10
2019-01-05T00:29:39.842Z,90.10
2019-01-05T00:30:44.110Z,90.04
2019-01-05T00:31:48.311Z,90.02
2019-01-05T00:32:52.448Z,90.21
2019-01-05T00:33:56.662Z,90.14
2019-01-05T00:35:00.845Z,90.08
2019-01-05T00:36:05.040Z,90.02
2019-01-05T00:37:09.267Z,90.15
2019-01-05T00:38:13.475Z,90.13
2019-01-05T00:39:17.677Z,90.26
2019-01-05T00:40:21.967Z,90.27
2019-01-05T00:41:26.193Z,90.23
2019-01-05T00:42:30.450Z,90.23
2019-01-05T00:43:34.579Z,90.31
2019-01-05T00:44:38.870Z,90.27
2019-01-05T00:45:43.015Z,90.47
2019-01-05T00:46:47.202Z,90.46
2019-01-05T00:47:51.494Z,90.41
2019-01-05T00:48:55.633Z,90.42
2019-01-05T00:49:59.826Z,90.46
2019-01-05T00:51:04.018Z,90.36
2019-01-05T00:52:08.280Z,90.35
2019-01-05T00:53:12.533Z,90.34
2019-01-05T00:54:16.756Z,90.36
2019-01-05T00:55:21.000Z,90.31
2019-01-05T00:56:25.175Z,90.36
2019-01-05T00:57:29.437Z,90.30
2019-01-05T00:58:34.582Z,90.25
2019-01-05T00:59:38.396Z,90.28
2019-01-05T01:00:42.564Z,90.29
2019-01-05T01:01:46.851Z,90.22
2019-01-05T01:02:51.007Z,90.19
2019-01-05T01:03:55.106Z,90.10
2019-01-05T01:04:59.467Z,90.13
2019-01-05T01:06:03.639Z,90.19
2019-01-05T01:07:07.917Z,90.18
2019-01-05T01:08:12.175Z,90.12
2019-01-05T01:09:16.403Z,90.21
2019-01-05T01:10:20.563Z,90.17
2019-01-05T01:11:24.885Z,90.16
2019-01-05T01:12:28.960Z,90.14
2019-01-05T01:13:33.128Z,90.13
2019-01-05T01:14:37.413Z,90.14
2019-01-05T01:15:41.661Z,90.08
2019-01-05T01:16:45.973Z,90.04
2019-01-05T01:17:50.185Z,90.05
2019-01-05T01:18:54.342Z,90.09
2019-01-05T01:19:58.624Z,90.05
2019-01-05T01:21:02.818Z,90.02
2019-01-05T01:22:07.071Z,89.96
2019-01-05T01:23:11.292Z,89.97
2019-01-05T01:24:15.519Z,89.98
2019-01-05T01:25:19.740Z,89.96
2019-01-05T01:26:23.982Z,89.97
2019-01-05T01:27:28.176Z,90.01
2019-01-05T01:28:32.443Z,89.99
2019-01-05T01:29:36.597Z,90.01
2019-01-05T01:30:40.794Z,90.04
2019-01-05T01:31:45.125Z,89.98
2019-01-05T01:32:49.329Z,89.96
2019-01-05T01:33:53.589Z,90.07
2019-01-05T01:34:57.800Z,90.01
2019-01-05T01:36:01.961Z,89.97
2019-01-05T01:37:06.169Z,89.99
2019-01-05T01:38:10.464Z,90.01
2019-01-05T01:39:14.693Z,90.00
2019-01-05T01:40:18.953Z,89.92
2019-01-05T01:41:23.223Z,89.91
2019-01-05T01:42:27.397Z,89.91
2019-01-05T01:43:31.621Z,89.90
2019-01-05T01:44:36.623Z,89.88
2019-01-05T01:45:40.078Z,89.89
2019-01-05T01:46:44.260Z,89.83
2019-01-05T01:47:48.591Z,89.83
2019-01-05T01:48:52.733Z,89.80
2019-01-05T01:49:56.978Z,89.81
2019-01-05T01:51:01.210Z,89.79
2019-01-05T01:52:05.450Z,89.79
2019-01-05T01:53:09.682Z,89.83
2019-01-05T01:54:13.831Z,89.82
2019-01-05T01:55:18.100Z,89.88
2019-01-05T01:56:22.340Z,89.85
2019-01-05T01:57:26.623Z,89.97
2019-01-05T01:58:30.791Z,89.86
2019-01-05T01:59:35.014Z,89.82
2019-01-05T02:00:39.281Z,89.80
2019-01-05T02:01:43.502Z,89.83
2019-01-05T02:02:47.685Z,89.85
2019-01-05T02:03:51.982Z,89.89
2019-01-05T02:04:56.218Z,89.86
2019-01-05T02:06:00.343Z,89.85
2019-01-05T02:07:04.647Z,89.88
2019-01-05T02:08:08.805Z,89.88
2019-01-05T02:09:13.081Z,89.88
2019-01-05T02:10:17.311Z,89.92
2019-01-05T02:11:21.562Z,89.93
2019-01-05T02:12:25.727Z,89.96
2019-01-05T02:13:29.941Z,90.02
2019-01-05T02:14:34.180Z,89.97
2019-01-05T02:15:38.437Z,89.96
2019-01-05T02:16:42.670Z,89.92
2019-01-05T02:17:46.904Z,89.89
2019-01-05T02:18:51.179Z,89.92
2019-01-05T02:19:55.419Z,89.88
2019-01-05T02:20:59.659Z,89.85
2019-01-05T02:22:03.817Z,89.90
2019-01-05T02:23:08.101Z,89.85
2019-01-05T02:24:12.321Z,89.84
2019-01-05T02:25:16.552Z,89.89
2019-01-05T02:26:20.805Z,89.97
2019-01-05T02:27:24.961Z,89.95
2019-01-05T02:28:29.294Z,89.97
2019-01-05T02:29:33.443Z,89.99
2019-01-05T02:30:37.658Z,89.99
2019-01-05T02:31:41.929Z,89.96
2019-01-05T02:32:46.184Z,89.95
2019-01-05T02:33:50.441Z,89.94
2019-01-05T02:34:54.663Z,89.94
2019-01-05T02:35:58.887Z,89.89
2019-01-05T02:37:03.116Z,89.87
2019-01-05T02:38:07.257Z,89.91
2019-01-05T02:39:11.585Z,89.86
2019-01-05T02:40:15.814Z,89.83
2019-01-05T02:41:20.099Z,89.77
2019-01-05T02:42:24.240Z,89.76
2019-01-05T02:43:28.522Z,89.75
2019-01-05T02:44:32.677Z,89.76
2019-01-05T02:45:36.953Z,89.71
2019-01-05T02:46:41.164Z,89.68
2019-01-05T02:47:45.348Z,89.70
2019-01-05T02:48:49.552Z,89.63
2019-01-05T02:49:53.718Z,89.64
2019-01-05T02:50:58.005Z,89.65
2019-01-05T02:52:02.041Z,89.64
2019-01-05T02:53:06.372Z,89.63
2019-01-05T02:54:10.700Z,89.60
2019-01-05T02:55:14.917Z,89.55
2019-01-05T02:56:19.148Z,89.53
2019-01-05T02:57:23.290Z,89.54
2019-01-05T02:58:27.560Z,89.54
2019-01-05T02:59:31.837Z,89.54
2019-01-05T03:00:36.096Z,89.54
2019-01-05T03:01:40.298Z,89.50
2019-01-05T03:02:44.532Z,89.48
2019-01-05T03:03:48.793Z,89.47
2019-01-05T03:04:53.042Z,89.40
2019-01-05T03:05:57.185Z,89.47
2019-01-05T03:07:01.457Z,89.44
2019-01-05T03:08:05.658Z,89.47
2019-01-05T03:09:09.898Z,89.53
2019-01-05T03:10:14.187Z,89.54
2019-01-05T03:11:18.345Z,89.55
2019-01-05T03:12:22.556Z,89.51
2019-01-05T03:13:26.841Z,89.53
2019-01-05T03:14:31.093Z,89.55
2019-01-05T03:15:35.308Z,89.53
2019-01-05T03:16:39.446Z,89.51
2019-01-05T03:17:43.783Z,89.50
2019-01-05T03:18:48.030Z,89.50
2019-01-05T03:19:53.090Z,89.48
2019-01-05T03:20:56.904Z,89.47
2019-01-05T03:22:01.068Z,89.44
2019-01-05T03:23:05.296Z,89.42
2019-01-05T03:24:09.515Z,89.42
2019-01-05T03:25:13.835Z,89.44
2019-01-05T03:26:18.070Z,89.44
2019-01-05T03:27:22.320Z,89.45
2019-01-05T03:28:26.496Z,89.46
2019-01-05T03:29:30.798Z,89.43
2019-01-05T03:30:35.074Z,89.46
2019-01-05T03:31:39.294Z,89.51
2019-01-05T03:32:43.547Z,89.54
2019-01-05T03:33:47.762Z,89.54
2019-01-05T03:34:52.030Z,89.52
2019-01-05T03:35:56.265Z,89.54
2019-01-05T03:37:00.418Z,89.55
2019-01-05T03:38:04.692Z,89.52
2019-01-05T03:39:08.940Z,89.53
2019-01-05T03:40:13.186Z,89.53
2019-01-05T03:41:17.356Z,89.52
2019-01-05T03:42:21.649Z,89.51
2019-01-05T03:43:25.808Z,89.49
2019-01-05T03:44:30.057Z,89.45
2019-01-05T03:45:34.481Z,89.43
2019-01-05T03:46:38.626Z,89.49
2019-01-05T03:47:42.861Z,89.43
2019-01-05T03:48:47.095Z,89.41
2019-01-05T03:49:51.314Z,89.44
2019-01-05T03:50:55.573Z,89.42
2019-01-05T03:51:59.821Z,89.39
2019-01-05T03:53:03.955Z,89.39
2019-01-05T03:54:08.234Z,89.40
2019-01-05T03:55:12.486Z,89.45
2019-01-05T03:56:16.761Z,89.35
2019-01-05T03:57:20.990Z,89.35
2019-01-05T03:58:25.211Z,89.34
2019-01-05T03:59:29.359Z,89.34
2019-01-05T04:00:33.643Z,89.41
2019-01-05T04:01:37.815Z,89.38
2019-01-05T04:02:42.015Z,89.35
2019-01-05T04:03:46.213Z,89.34
2019-01-05T04:04:50.483Z,89.35
2019-01-05T04:05:54.587Z,89.32
2019-01-05T04:06:58.917Z,89.27
2019-01-05T04:08:03.011Z,89.27
2019-01-05T04:09:07.198Z,89.28
2019-01-05T04:10:11.381Z,89.33
2019-01-05T04:11:15.712Z,89.27
2019-01-05T04:12:19.826Z,89.29
2019-01-05T04:13:24.044Z,89.30
2019-01-05T04:14:28.225Z,89.32
2019-01-05T04:15:32.506Z,89.31
2019-01-05T04:16:36.705Z,89.31
2019-01-05T04:17:40.935Z,89.34
2019-01-05T04:18:45.209Z,89.34
2019-01-05T04:19:49.425Z,89.35
2019-01-05T04:20:53.653Z,89.32
2019-01-05T04:21:57.891Z,89.35
2019-01-05T04:23:02.140Z,89.38
2019-01-05T04:24:06.377Z,89.39
2019-01-05T04:25:10.594Z,89.41
2019-01-05T04:26:14.821Z,89.41
2019-01-05T04:27:18.853Z,89.39
2019-01-05T04:28:23.199Z,89.34
2019-01-05T04:29:27.274Z,89.30
2019-01-05T04:30:31.606Z,89.28
2019-01-05T04:31:35.730Z,89.24
2019-01-05T04:32:40.019Z,89.27
2019-01-05T04:33:44.272Z,89.29
2019-01-05T04:34:48.491Z,89.27
2019-01-05T04:35:52.618Z,89.30
2019-01-05T04:36:56.909Z,89.29
2019-01-05T04:38:01.087Z,89.32
2019-01-05T04:39:05.386Z,89.33
2019-01-05T04:40:09.419Z,89.33
2019-01-05T04:41:13.741Z,89.36
2019-01-05T04:42:17.903Z,89.42
2019-01-05T04:43:22.206Z,89.43
2019-01-05T04:44:26.347Z,89.40
2019-01-05T04:45:30.623Z,89.41
2019-01-05T04:46:34.784Z,89.39
2019-01-05T04:47:39.040Z,89.39
2019-01-05T04:48:43.258Z,89.41
2019-01-05T04:49:47.409Z,89.39
2019-01-05T04:50:51.646Z,89.38
2019-01-05T04:51:55.921Z,89.38
2019-01-05T04:53:00.093Z,89.39
2019-01-05T04:54:04.349Z,89.38
2019-01-05T04:55:08.465Z,89.34
2019-01-05T04:56:12.690Z,89.28
2019-01-05T04:57:17.007Z,89.31
2019-01-05T04:58:21.270Z,89.30
2019-01-05T04:59:25.434Z,89.28
2019-01-05T05:00:29.727Z,89.27
2019-01-05T05:01:33.938Z,89.31
2019-01-05T05:02:38.155Z,89.33
2019-01-05T05:03:42.377Z,89.30
2019-01-05T05:04:46.499Z,89.27
2019-01-05T05:05:50.547Z,89.30
2019-01-05T05:06:54.808Z,89.32
2019-01-05T05:07:59.080Z,89.35
2019-01-05T05:09:03.286Z,89.31
2019-01-05T05:10:07.565Z,89.33
2019-01-05T05:11:11.690Z,89.32
2019-01-05T05:12:15.865Z,89.32
2019-01-05T05:13:20.050Z,89.30
2019-01-05T05:14:24.362Z,89.28
2019-01-05T05:15:29.255Z,89.25
2019-01-05T05:16:32.692Z,89.21
2019-01-05T05:17:36.902Z,89.17
2019-01-05T05:18:41.124Z,89.16
2019-01-05T05:19:45.384Z,89.18
2019-01-05T05:20:49.651Z,89.19
2019-01-05T05:21:53.760Z,89.18
2019-01-05T05:22:58.030Z,89.17
2019-01-05T05:24:02.162Z,89.15
2019-01-05T05:25:06.402Z,89.16
2019-01-05T05:26:10.657Z,89.18
2019-01-05T05:27:14.822Z,89.13
2019-01-05T05:28:18.937Z,89.10
2019-01-05T05:29:23.263Z,89.09
2019-01-05T05:30:27.428Z,89.02
2019-01-05T05:31:31.624Z,89.01
2019-01-05T05:32:35.795Z,89.05
2019-01-05T05:33:40.006Z,89.05
2019-01-05T05:34:44.284Z,89.10
2019-01-05T05:35:48.558Z,89.10
2019-01-05T05:36:52.755Z,89.11
2019-01-05T05:37:56.994Z,89.13
2019-01-05T05:39:01.144Z,89.10
2019-01-05T05:40:05.408Z,89.13
2019-01-05T05:41:09.556Z,89.14
2019-01-05T05:42:13.740Z,89.10
2019-01-05T05:43:17.905Z,89.09
2019-01-05T05:44:22.115Z,89.08
2019-01-05T05:45:26.376Z,89.05
2019-01-05T05:46:30.634Z,89.06
2019-01-05T05:47:34.855Z,89.05
2019-01-05T05:48:39.015Z,89.00
2019-01-05T05:49:43.318Z,88.96
2019-01-05T05:50:47.547Z,88.92
2019-01-05T05:51:51.666Z,88.90
2019-01-05T05:52:55.992Z,88.89
2019-01-05T05:54:00.236Z,88.89
2019-01-05T05:55:04.475Z,88.92
2019-01-05T05:56:08.640Z,88.92
2019-01-05T05:57:12.848Z,88.92
2019-01-05T05:58:17.052Z,88.95
2019-01-05T05:59:21.232Z,88.97
2019-01-05T06:00:25.419Z,88.95
2019-01-05T06:01:29.618Z,88.95
2019-01-05T06:02:33.910Z,88.96
2019-01-05T06:03:38.019Z,88.94
2019-01-05T06:04:42.269Z,88.92
2019-01-05T06:05:46.542Z,88.93
2019-01-05T06:06:50.811Z,88.95
2019-01-05T06:07:55.002Z,88.98
2019-01-05T06:08:59.258Z,88.98
2019-01-05T06:10:03.479Z,88.93
2019-01-05T06:11:07.654Z,88.95
2019-01-05T06:12:11.815Z,88.95
2019-01-05T06:13:16.064Z,88.92
2019-01-05T06:14:20.287Z,88.92
2019-01-05T06:15:24.434Z,88.91
2019-01-05T06:16:28.633Z,88.90
2019-01-05T06:17:32.850Z,88.90
2019-01-05T06:18:37.119Z,88.92
2019-01-05T06:19:41.358Z,88.89
2019-01-05T06:20:45.503Z,88.87
2019-01-05T06:21:49.649Z,88.95
2019-01-05T06:22:53.959Z,88.94
2019-01-05T06:23:58.117Z,88.95
2019-01-05T06:25:02.298Z,88.91
2019-01-05T06:26:06.640Z,88.89
2019-01-05T06:27:10.886Z,88.90
2019-01-05T06:28:15.098Z,88.91
2019-01-05T06:29:19.228Z,88.89
2019-01-05T06:30:23.413Z,88.84
2019-01-05T06:31:27.654Z,88.86
2019-01-05T06:32:31.921Z,88.89
2019-01-05T06:33:36.019Z,88.88
2019-01-05T06:34:40.362Z,88.89
2019-01-05T06:35:44.502Z,88.85
2019-01-05T06:36:48.651Z,88.89
2019-01-05T06:37:52.796Z,88.91
2019-01-05T06:38:57.134Z,88.91
2019-01-05T06:40:01.349Z,88.90
2019-01-05T06:41:05.496Z,88.91
2019-01-05T06:42:09.851Z,88.85
2019-01-05T06:43:14.031Z,88.82
2019-01-05T06:44:18.236Z,88.83
2019-01-05T06:45:22.484Z,88.83
2019-01-05T06:46:26.546Z,88.82
2019-01-05T06:47:30.723Z,88.82
2019-01-05T06:48:34.953Z,88.82
2019-01-05T06:49:39.265Z,88.84
2019-01-05T06:50:43.503Z,88.85
2019-01-05T06:51:47.670Z,88.84
2019-01-05T06:52:51.859Z,88.84
2019-01-05T06:53:56.067Z,88.85
2019-01-05T06:55:00.273Z,88.85
2019-01-05T06:56:04.559Z,88.84
2019-01-05T06:57:08.737Z,88.81
2019-01-05T06:58:12.832Z,88.83
2019-01-05T06:59:17.128Z,88.77
2019-01-05T07:00:21.352Z,88.75
2019-01-05T07:01:25.604Z,88.64
2019-01-05T07:02:29.714Z,88.58
2019-01-05T07:03:33.942Z,88.62
2019-01-05T07:04:38.187Z,88.63
2019-01-05T07:05:42.424Z,88.59
2019-01-05T07:06:46.654Z,88.54
2019-01-05T07:07:50.883Z,88.53
2019-01-05T07:08:58.156Z,88.53
2019-01-05T07:10:01.442Z,88.54
2019-01-05T07:11:05.610Z,88.55
2019-01-05T07:12:09.863Z,88.53
2019-01-05T07:13:14.143Z,88.54
2019-01-05T07:14:18.288Z,88.49
2019-01-05T07:15:22.477Z,88.52
2019-01-05T07:16:26.756Z,88.50
2019-01-05T07:17:30.919Z,88.57
2019-01-05T07:18:35.223Z,88.52
2019-01-05T07:19:39.350Z,88.55
2019-01-05T07:20:43.651Z,88.55
2019-01-05T07:21:47.798Z,88.56
2019-01-05T07:22:51.978Z,88.57
2019-01-05T07:23:56.222Z,88.53
2019-01-05T07:25:00.399Z,88.56
2019-01-05T07:26:04.614Z,88.56
2019-01-05T07:27:08.723Z,88.53
2019-01-05T07:28:13.079Z,88.53
2019-01-05T07:29:17.120Z,88.51
2019-01-05T07:30:21.368Z,88.53
2019-01-05T07:31:25.662Z,88.52
2019-01-05T07:32:29.878Z,88.48
2019-01-05T07:33:34.063Z,88.50
2019-01-05T07:34:38.135Z,88.54
2019-01-05T07:35:42.360Z,88.53
2019-01-05T07:36:46.456Z,88.52
2019-01-05T07:37:50.732Z,88.53
2019-01-05T07:38:55.040Z,88.54
2019-01-05T07:39:59.187Z,88.56
2019-01-05T07:41:03.357Z,88.55
2019-01-05T07:42:07.527Z,88.57
2019-01-05T07:43:11.710Z,88.55
2019-01-05T07:44:16.109Z,88.63
2019-01-05T07:45:20.262Z,88.60
2019-01-05T07:46:24.315Z,88.59
2019-01-05T07:47:28.626Z,88.63
2019-01-05T07:48:32.854Z,88.64
2019-01-05T07:49:37.068Z,88.66
2019-01-05T07:50:41.167Z,88.65
2019-01-05T07:51:45.408Z,88.64
2019-01-05T07:52:49.568Z,88.67
2019-01-05T07:53:53.795Z,88.70
2019-01-05T07:54:57.928Z,88.74
2019-01-05T07:56:02.273Z,88.75
2019-01-05T07:57:06.485Z,88.71
2019-01-05T07:58:10.706Z,88.75
2019-01-05T07:59:14.863Z,88.75
2019-01-05T08:00:19.104Z,88.76
2019-01-05T08:01:23.248Z,88.78
2019-01-05T08:02:27.399Z,88.74
2019-01-05T08:03:31.603Z,88.73
2019-01-05T08:04:35.815Z,88.75
2019-01-05T08:05:39.989Z,88.79
2019-01-05T08:06:44.128Z,88.81
2019-01-05T08:07:48.336Z,88.81
2019-01-05T08:08:52.637Z,88.83
2019-01-05T08:09:56.828Z,88.81
2019-01-05T08:11:00.998Z,88.78
2019-01-05T08:12:05.180Z,88.78
2019-01-05T08:13:09.431Z,88.79
2019-01-05T08:14:13.653Z,88.80
2019-01-05T08:15:17.802Z,88.78
2019-01-05T08:16:21.902Z,88.75
2019-01-05T08:17:26.149Z,88.75
2019-01-05T08:18:30.371Z,88.73
2019-01-05T08:19:34.652Z,88.75
2019-01-05T08:20:38.823Z,88.76
2019-01-05T08:21:43.083Z,88.78
2019-01-05T08:22:47.292Z,88.72
2019-01-05T08:23:51.462Z,88.74
2019-01-05T08:24:55.656Z,88.76
2019-01-05T08:25:59.880Z,88.75
2019-01-05T08:27:04.164Z,88.73
2019-01-05T08:28:08.301Z,88.71
2019-01-05T08:29:12.601Z,88.72
2019-01-05T08:30:16.788Z,88.71
2019-01-05T08:31:21.036Z,88.70
2019-01-05T08:32:25.279Z,88.71
2019-01-05T08:33:29.444Z,88.70
2019-01-05T08:34:33.611Z,88.66
2019-01-05T08:35:37.951Z,88.71
2019-01-05T08:36:42.043Z,88.71
2019-01-05T08:37:46.187Z,88.72
2019-01-05T08:38:50.496Z,88.72
2019-01-05T08:39:54.733Z,88.71
2019-01-05T08:40:58.987Z,88.69
2019-01-05T08:42:03.226Z,88.65
2019-01-05T08:43:07.408Z,88.53
2019-01-05T08:44:11.593Z,88.60
2019-01-05T08:45:15.867Z,88.63
2019-01-05T08:46:20.145Z,88.62
2019-01-05T08:47:24.162Z,88.66
2019-01-05T08:48:28.478Z,88.70
2019-01-05T08:49:32.624Z,88.74
2019-01-05T08:50:36.925Z,88.72
2019-01-05T08:51:41.094Z,88.70
2019-01-05T08:52:45.244Z,88.72
2019-01-05T08:53:49.441Z,88.64
2019-01-05T08:54:53.622Z,88.68
2019-01-05T08:55:57.800Z,88.67
2019-01-05T08:57:02.089Z,88.66
2019-01-05T08:58:06.309Z,88.68
2019-01-05T08:59:10.518Z,88.71
2019-01-05T09:00:14.570Z,88.75
2019-01-05T09:01:18.817Z,88.79
2019-01-05T09:02:23.132Z,88.81
2019-01-05T09:03:27.190Z,88.82
2019-01-05T09:04:31.400Z,88.85
2019-01-05T09:05:35.599Z,88.82
2019-01-05T09:06:39.850Z,88.83
2019-01-05T09:07:44.033Z,88.82
2019-01-05T09:08:48.237Z,88.80
2019-01-05T09:09:52.422Z,88.81
2019-01-05T09:10:56.744Z,88.79
2019-01-05T09:12:01.201Z,88.83
2019-01-05T09:13:05.270Z,88.90
2019-01-05T09:14:09.590Z,88.82
2019-01-05T09:15:13.853Z,88.80
2019-01-05T09:16:18.026Z,88.80
2019-01-05T09:17:22.213Z,88.78
2019-01-05T09:18:26.403Z,88.76
2019-01-05T09:19:30.596Z,88.72
2019-01-05T09:20:34.866Z,88.65
2019-01-05T09:21:39.138Z,88.60
2019-01-05T09:22:43.378Z,88.59
2019-01-05T09:23:47.491Z,88.49
2019-01-05T09:24:51.791Z,88.33
2019-01-05T09:25:55.835Z,88.33
2019-01-05T09:27:00.117Z,88.31
2019-01-05T09:28:04.316Z,88.25
2019-01-05T09:29:08.395Z,88.28
2019-01-05T09:30:12.658Z,88.28
2019-01-05T09:31:16.949Z,88.25
2019-01-05T09:32:21.138Z,88.24
2019-01-05T09:33:25.436Z,88.20
2019-01-05T09:34:29.624Z,88.23
2019-01-05T09:35:33.941Z,88.21
2019-01-05T09:36:38.023Z,88.15
2019-01-05T09:37:42.390Z,88.18
2019-01-05T09:38:46.646Z,88.21
2019-01-05T09:39:50.822Z,88.11
2019-01-05T09:40:55.061Z,88.03
2019-01-05T09:41:59.243Z,87.98
2019-01-05T09:43:03.440Z,87.98
2019-01-05T09:44:07.721Z,88.00
2019-01-05T09:45:11.855Z,88.00
2019-01-05T09:46:16.136Z,88.00
2019-01-05T09:47:20.269Z,87.96
2019-01-05T09:48:24.581Z,87.96
2019-01-05T09:49:28.741Z,87.94
2019-01-05T09:50:33.025Z,87.95
2019-01-05T09:51:37.246Z,88.01
2019-01-05T09:52:41.335Z,88.01
2019-01-05T09:53:45.559Z,88.04
2019-01-05T09:54:49.773Z,88.15
2019-01-05T09:55:54.019Z,88.19
2019-01-05T09:56:58.124Z,88.28
2019-01-05T09:58:02.423Z,88.31
2019-01-05T09:59:06.553Z,88.33
2019-01-05T10:00:10.828Z,88.35
2019-01-05T10:01:14.871Z,88.20
2019-01-05T10:02:19.100Z,88.33
2019-01-05T10:03:23.421Z,88.28
2019-01-05T10:04:27.645Z,88.25
2019-01-05T10:05:31.824Z,88.23
2019-01-05T10:06:36.103Z,88.28
2019-01-05T10:07:40.339Z,88.28
2019-01-05T10:08:44.573Z,88.30
2019-01-05T10:09:48.841Z,88.32
2019-01-05T10:10:52.988Z,88.40
2019-01-05T10:11:57.190Z,88.41
2019-01-05T10:13:01.369Z,88.42
2019-01-05T10:14:05.664Z,88.45
2019-01-05T10:15:09.881Z,88.42
2019-01-05T10:16:14.891Z,88.41
2019-01-05T10:17:18.782Z,88.41
2019-01-05T10:18:22.910Z,88.43
2019-01-05T10:19:27.226Z,88.28
2019-01-05T10:20:31.320Z,88.22
2019-01-05T10:21:35.551Z,88.17
2019-01-05T10:22:39.775Z,88.12
2019-01-05T10:23:44.056Z,88.11
2019-01-05T10:24:48.335Z,88.12
2019-01-05T10:25:52.449Z,88.11
2019-01-05T10:26:56.752Z,88.05
2019-01-05T10:28:00.980Z,87.96
2019-01-05T10:29:05.136Z,87.91
2019-01-05T10:30:09.400Z,87.70
2019-01-05T10:31:13.605Z,87.53
2019-01-05T10:32:17.783Z,87.59
2019-01-05T10:33:22.045Z,87.64
2019-01-05T10:34:29.291Z,87.65
2019-01-05T10:35:32.480Z,87.31
2019-01-05T10:36:36.690Z,87.23
2019-01-05T10:37:40.935Z,87.22
2019-01-05T10:38:45.117Z,87.19
2019-01-05T10:39:49.339Z,87.03
2019-01-05T10:40:53.622Z,86.77
2019-01-05T10:41:57.844Z,86.73
2019-01-05T10:43:02.087Z,86.84
2019-01-05T10:44:06.307Z,86.68
2019-01-05T10:45:10.475Z,86.71
2019-01-05T10:46:14.734Z,86.77
2019-01-05T10:47:18.988Z,86.90
2019-01-05T10:48:23.228Z,86.87
2019-01-05T10:49:27.328Z,86.81
2019-01-05T10:50:31.679Z,86.86
2019-01-05T10:51:35.872Z,86.75
2019-01-05T10:52:40.149Z,86.86
2019-01-05T10:53:44.312Z,86.88
2019-01-05T10:54:48.621Z,86.85
2019-01-05T10:55:52.787Z,86.87
2019-01-05T10:56:57.135Z,86.86
2019-01-05T10:58:01.205Z,86.82
2019-01-05T10:59:05.386Z,86.80
2019-01-05T11:00:09.502Z,86.71
2019-01-05T11:01:13.858Z,86.83
2019-01-05T11:02:18.110Z,86.72
2019-01-05T11:03:22.292Z,86.79
2019-01-05T11:04:26.510Z,86.83
2019-01-05T11:05:30.717Z,86.75
2019-01-05T11:06:35.006Z,86.69
2019-01-05T11:07:39.124Z,86.57
2019-01-05T11:08:43.426Z,86.58
2019-01-05T11:09:47.546Z,86.48
2019-01-05T11:10:51.652Z,86.60
2019-01-05T11:11:56.041Z,86.57
2019-01-05T11:13:00.284Z,86.68
2019-01-05T11:14:04.418Z,86.62
2019-01-05T11:15:08.734Z,86.59
2019-01-05T11:16:12.909Z,86.34
2019-01-05T11:17:17.140Z,86.36
2019-01-05T11:18:21.301Z,86.38
2019-01-05T11:19:25.730Z,86.28
2019-01-05T11:20:35.572Z,86.15
2019-01-05T11:21:34.166Z,86.19
2019-01-05T11:22:38.421Z,86.22
2019-01-05T11:23:42.443Z,86.17
2019-01-05T11:24:46.773Z,86.17
2019-01-05T11:25:51.030Z,85.97
2019-01-05T11:26:55.295Z,85.87
2019-01-05T11:27:59.550Z,86.06
2019-01-05T11:29:03.754Z,86.12
2019-01-05T11:30:07.967Z,86.27
2019-01-05T11:31:12.215Z,86.34
2019-01-05T11:32:16.371Z,86.38
2019-01-05T11:33:20.629Z,86.15
2019-01-05T11:34:24.877Z,86.17
2019-01-05T11:35:29.044Z,86.14
2019-01-05T11:36:33.377Z,85.59
2019-01-05T11:37:37.566Z,85.61
2019-01-05T11:38:41.826Z,85.67
2019-01-05T11:39:46.009Z,85.72
2019-01-05T11:40:50.238Z,85.70
2019-01-05T11:41:54.540Z,85.71
2019-01-05T11:42:58.699Z,85.77
2019-01-05T11:44:02.867Z,85.64
2019-01-05T11:45:07.085Z,85.52
2019-01-05T11:46:11.192Z,85.59
2019-01-05T11:47:15.533Z,85.66
2019-01-05T11:48:19.772Z,85.38
2019-01-05T11:49:24.008Z,85.23
2019-01-05T11:50:28.169Z,84.93
2019-01-05T11:51:32.464Z,85.07
2019-01-05T11:52:36.632Z,85.19
2019-01-05T11:53:40.936Z,85.20
2019-01-05T11:54:45.153Z,84.94
2019-01-05T11:55:49.392Z,84.75
2019-01-05T11:56:53.653Z,85.00
2019-01-05T11:57:57.928Z,84.71
2019-01-05T11:59:02.125Z,84.36
2019-01-05T12:00:06.393Z,84.51
2019-01-05T12:01:10.561Z,84.29
2019-01-05T12:02:19.666Z,84.51
2019-01-05T12:03:19.166Z,84.34
2019-01-05T12:04:23.355Z,84.19
2019-01-05T12:05:27.609Z,84.26
2019-01-05T12:06:31.771Z,84.06
2019-01-05T12:07:36.125Z,84.16
2019-01-05T12:08:40.310Z,84.44
2019-01-05T12:09:44.576Z,84.33
2019-01-05T12:10:48.829Z,84.07
2019-01-05T12:11:53.086Z,84.16
2019-01-05T12:12:57.227Z,84.25
2019-01-05T12:14:01.454Z,84.39
2019-01-05T12:15:05.688Z,84.16
2019-01-05T12:16:09.932Z,84.03
2019-01-05T12:17:17.169Z,84.07
2019-01-05T12:18:20.486Z,84.06
2019-01-05T12:19:24.729Z,84.19
2019-01-05T12:20:28.931Z,84.41
2019-01-05T12:21:33.134Z,83.98
2019-01-05T12:22:37.429Z,83.97
2019-01-05T12:23:41.673Z,84.11
2019-01-05T12:24:45.837Z,84.26
2019-01-05T12:25:50.132Z,84.27
2019-01-05T12:26:54.359Z,84.27
2019-01-05T12:27:58.594Z,84.19
2019-01-05T12:29:02.851Z,83.52
2019-01-05T12:30:07.031Z,83.33
2019-01-05T12:31:11.277Z,83.67
2019-01-05T12:32:15.535Z,83.77
2019-01-05T12:33:19.728Z,83.94
2019-01-05T12:34:24.004Z,83.86
2019-01-05T12:35:28.083Z,83.66
2019-01-05T12:36:32.417Z,83.67
2019-01-05T12:37:36.664Z,83.77
2019-01-05T12:38:40.820Z,83.73
2019-01-05T12:39:45.093Z,83.73
2019-01-05T12:40:49.338Z,83.38
2019-01-05T12:41:53.470Z,82.90
2019-01-05T12:42:57.693Z,82.83
2019-01-05T12:44:01.951Z,82.59
2019-01-05T12:45:06.114Z,82.94
2019-01-05T12:46:10.362Z,82.99
2019-01-05T12:47:14.411Z,83.07
2019-01-05T12:48:18.751Z,83.08
2019-01-05T12:49:23.066Z,83.37
2019-01-05T12:50:27.170Z,83.28
2019-01-05T12:51:31.438Z,83.38
2019-01-05T12:52:35.570Z,83.24
2019-01-05T12:53:39.677Z,83.35
2019-01-05T12:54:43.946Z,83.40
2019-01-05T12:55:48.113Z,83.42
2019-01-05T12:56:52.340Z,83.17
2019-01-05T12:57:56.633Z,82.84
2019-01-05T12:59:00.876Z,82.94
2019-01-05T13:00:05.136Z,83.15
2019-01-05T13:01:09.268Z,82.74
2019-01-05T13:02:13.451Z,83.09
2019-01-05T13:03:17.661Z,82.94
2019-01-05T13:04:21.954Z,82.63
2019-01-05T13:05:26.147Z,82.87
2019-01-05T13:06:30.387Z,82.79
2019-01-05T13:07:34.591Z,82.38
2019-01-05T13:08:38.860Z,82.57
2019-01-05T13:09:42.983Z,82.56
2019-01-05T13:10:50.251Z,82.51
2019-01-05T13:11:53.537Z,82.77
2019-01-05T13:12:57.790Z,82.90
2019-01-05T13:14:02.010Z,82.81
2019-01-05T13:15:06.243Z,82.25
2019-01-05T13:16:10.504Z,82.70
2019-01-05T13:17:14.678Z,82.63
2019-01-05T13:18:18.771Z,82.44
2019-01-05T13:19:23.299Z,82.58
2019-01-05T13:20:27.429Z,82.62
2019-01-05T13:21:31.675Z,82.67
2019-01-05T13:22:35.829Z,82.60
2019-01-05T13:23:39.995Z,82.59
2019-01-05T13:24:44.103Z,82.60
2019-01-05T13:25:48.440Z,82.82
2019-01-05T13:26:52.616Z,82.78
2019-01-05T13:27:56.767Z,83.01
2019-01-05T13:29:01.043Z,82.83
2019-01-05T13:30:05.253Z,82.62
2019-01-05T13:31:09.380Z,82.75
2019-01-05T13:32:13.602Z,82.58
2019-01-05T13:33:17.882Z,82.58
2019-01-05T13:34:22.105Z,82.69
2019-01-05T13:35:26.336Z,82.67
2019-01-05T13:36:30.497Z,82.57
2019-01-05T13:37:34.592Z,82.48
2019-01-05T13:38:38.821Z,82.38
2019-01-05T13:39:43.098Z,82.39
2019-01-05T13:40:47.191Z,82.36
2019-01-05T13:41:51.409Z,82.15
2019-01-05T13:42:55.657Z,81.95
2019-01-05T13:43:59.867Z,82.05
2019-01-05T13:45:03.989Z,82.32
2019-01-05T13:46:08.163Z,82.49
2019-01-05T13:47:12.444Z,82.54